sensor_id;sensor_type;location;lat;lon;timestamp;P1;durP1;ratioP1;P2;durP2;ratioP2
20894;SDS011;10607;42.066;24.742;2023-09-19T00:01:12;5.63;;;4.28;;
20894;SDS011;10607;42.066;24.742;2023-09-19T00:03:39;9.20;;;3.97;;
20894;SDS011;10607;42.066;24.742;2023-09-19T00:06:07;12.18;;;4.47;;
20894;SDS011;10607;42.066;24.742;2023-09-19T00:08:33;8.95;;;4.80;;
20894;SDS011;10607;42.066;24.742;2023-09-19T00:10:58;6.20;;;4.03;;
20894;SDS011;10607;42.066;24.742;2023-09-19T00:13:30;8.75;;;4.00;;
20894;SDS011;10607;42.066;24.742;2023-09-19T00:15:56;8.50;;;4.28;;
20894;SDS011;10607;42.066;24.742;2023-09-19T00:18:24;8.82;;;4.65;;
20894;SDS011;10607;42.066;24.742;2023-09-19T00:20:53;5.88;;;4.65;;
20894;SDS011;10607;42.066;24.742;2023-09-19T00:23:21;5.93;;;3.90;;
20894;SDS011;10607;42.066;24.742;2023-09-19T00:25:47;8.65;;;4.43;;
20894;SDS011;10607;42.066;24.742;2023-09-19T00:28:12;7.70;;;4.65;;
20894;SDS011;10607;42.066;24.742;2023-09-19T00:30:37;6.47;;;4.22;;
20894;SDS011;10607;42.066;24.742;2023-09-19T00:33:06;4.20;;;3.65;;
20894;SDS011;10607;42.066;24.742;2023-09-19T00:35:32;7.57;;;5.07;;
20894;SDS011;10607;42.066;24.742;2023-09-19T00:37:58;4.65;;;3.78;;
20894;SDS011;10607;42.066;24.742;2023-09-19T00:40:23;6.07;;;4.45;;
20894;SDS011;10607;42.066;24.742;2023-09-19T00:42:49;8.00;;;4.35;;
20894;SDS011;10607;42.066;24.742;2023-09-19T00:45:16;6.43;;;4.30;;
20894;SDS011;10607;42.066;24.742;2023-09-19T00:47:43;6.75;;;4.60;;
20894;SDS011;10607;42.066;24.742;2023-09-19T00:50:09;5.97;;;4.20;;
20894;SDS011;10607;42.066;24.742;2023-09-19T00:52:36;6.07;;;4.40;;
20894;SDS011;10607;42.066;24.742;2023-09-19T00:55:04;5.82;;;4.10;;
20894;SDS011;10607;42.066;24.742;2023-09-19T00:57:30;6.13;;;4.50;;
20894;SDS011;10607;42.066;24.742;2023-09-19T00:59:57;6.00;;;4.25;;
20894;SDS011;10607;42.066;24.742;2023-09-19T01:02:23;5.85;;;4.10;;
20894;SDS011;10607;42.066;24.742;2023-09-19T01:04:48;9.18;;;4.38;;
20894;SDS011;10607;42.066;24.742;2023-09-19T01:07:14;6.05;;;4.07;;
20894;SDS011;10607;42.066;24.742;2023-09-19T01:09:40;9.07;;;4.50;;
20894;SDS011;10607;42.066;24.742;2023-09-19T01:12:05;4.72;;;4.05;;
20894;SDS011;10607;42.066;24.742;2023-09-19T01:17:16;6.28;;;4.30;;
20894;SDS011;10607;42.066;24.742;2023-09-19T01:19:56;5.50;;;3.85;;
20894;SDS011;10607;42.066;24.742;2023-09-19T01:22:26;6.85;;;3.63;;
20894;SDS011;10607;42.066;24.742;2023-09-19T01:27:27;7.72;;;4.30;;
20894;SDS011;10607;42.066;24.742;2023-09-19T01:32:59;8.27;;;4.18;;
20894;SDS011;10607;42.066;24.742;2023-09-19T01:35:24;9.32;;;4.32;;
20894;SDS011;10607;42.066;24.742;2023-09-19T01:37:49;8.50;;;4.35;;
20894;SDS011;10607;42.066;24.742;2023-09-19T01:40:17;10.18;;;4.40;;
20894;SDS011;10607;42.066;24.742;2023-09-19T01:47:56;5.72;;;4.68;;
20894;SDS011;10607;42.066;24.742;2023-09-19T01:51:00;6.75;;;4.63;;
20894;SDS011;10607;42.066;24.742;2023-09-19T01:53:25;6.15;;;4.18;;
20894;SDS011;10607;42.066;24.742;2023-09-19T01:55:52;5.45;;;4.28;;
20894;SDS011;10607;42.066;24.742;2023-09-19T01:58:27;5.35;;;4.32;;
20894;SDS011;10607;42.066;24.742;2023-09-19T02:00:54;5.65;;;4.25;;
20894;SDS011;10607;42.066;24.742;2023-09-19T02:03:21;9.20;;;4.30;;
20894;SDS011;10607;42.066;24.742;2023-09-19T02:05:51;7.13;;;4.07;;
20894;SDS011;10607;42.066;24.742;2023-09-19T02:08:20;4.88;;;3.85;;
20894;SDS011;10607;42.066;24.742;2023-09-19T02:10:47;6.18;;;4.50;;
20894;SDS011;10607;42.066;24.742;2023-09-19T02:13:17;6.47;;;4.53;;
20894;SDS011;10607;42.066;24.742;2023-09-19T02:15:42;5.43;;;4.32;;
20894;SDS011;10607;42.066;24.742;2023-09-19T02:18:09;6.18;;;4.30;;
20894;SDS011;10607;42.066;24.742;2023-09-19T02:20:34;6.30;;;4.47;;
20894;SDS011;10607;42.066;24.742;2023-09-19T02:22:59;6.20;;;3.97;;
20894;SDS011;10607;42.066;24.742;2023-09-19T02:25:25;7.00;;;4.13;;
20894;SDS011;10607;42.066;24.742;2023-09-19T02:27:51;6.95;;;4.70;;
20894;SDS011;10607;42.066;24.742;2023-09-19T02:30:19;9.60;;;4.68;;
20894;SDS011;10607;42.066;24.742;2023-09-19T02:32:46;11.27;;;4.82;;
20894;SDS011;10607;42.066;24.742;2023-09-19T02:35:11;9.27;;;4.30;;
20894;SDS011;10607;42.066;24.742;2023-09-19T02:37:37;6.47;;;4.32;;
20894;SDS011;10607;42.066;24.742;2023-09-19T02:40:02;8.32;;;4.60;;
20894;SDS011;10607;42.066;24.742;2023-09-19T02:42:44;10.68;;;4.68;;
20894;SDS011;10607;42.066;24.742;2023-09-19T02:45:13;7.85;;;4.55;;
20894;SDS011;10607;42.066;24.742;2023-09-19T02:47:42;8.23;;;4.80;;
20894;SDS011;10607;42.066;24.742;2023-09-19T02:50:08;7.63;;;5.40;;
20894;SDS011;10607;42.066;24.742;2023-09-19T02:52:35;6.30;;;4.38;;
20894;SDS011;10607;42.066;24.742;2023-09-19T02:55:01;7.53;;;4.72;;
20894;SDS011;10607;42.066;24.742;2023-09-19T02:57:26;9.50;;;4.78;;
20894;SDS011;10607;42.066;24.742;2023-09-19T02:59:52;9.85;;;4.70;;
20894;SDS011;10607;42.066;24.742;2023-09-19T03:02:18;5.43;;;4.22;;
20894;SDS011;10607;42.066;24.742;2023-09-19T03:04:44;6.00;;;4.40;;
20894;SDS011;10607;42.066;24.742;2023-09-19T03:07:10;6.88;;;4.63;;
20894;SDS011;10607;42.066;24.742;2023-09-19T03:09:36;7.30;;;4.72;;
20894;SDS011;10607;42.066;24.742;2023-09-19T03:12:01;5.65;;;4.15;;
20894;SDS011;10607;42.066;24.742;2023-09-19T03:14:28;9.25;;;4.78;;
20894;SDS011;10607;42.066;24.742;2023-09-19T03:16:55;5.78;;;4.35;;
20894;SDS011;10607;42.066;24.742;2023-09-19T03:19:21;5.40;;;4.20;;
20894;SDS011;10607;42.066;24.742;2023-09-19T03:21:48;7.93;;;4.85;;
20894;SDS011;10607;42.066;24.742;2023-09-19T03:24:15;6.15;;;4.53;;
20894;SDS011;10607;42.066;24.742;2023-09-19T03:26:41;6.53;;;4.25;;
20894;SDS011;10607;42.066;24.742;2023-09-19T03:29:06;6.35;;;4.28;;
20894;SDS011;10607;42.066;24.742;2023-09-19T03:31:32;8.95;;;4.85;;
20894;SDS011;10607;42.066;24.742;2023-09-19T03:33:57;6.50;;;4.55;;
20894;SDS011;10607;42.066;24.742;2023-09-19T03:36:22;9.32;;;4.32;;
20894;SDS011;10607;42.066;24.742;2023-09-19T03:38:47;4.68;;;3.67;;
20894;SDS011;10607;42.066;24.742;2023-09-19T03:41:13;6.03;;;4.53;;
20894;SDS011;10607;42.066;24.742;2023-09-19T03:43:39;9.98;;;4.70;;
20894;SDS011;10607;42.066;24.742;2023-09-19T03:46:04;8.45;;;4.90;;
20894;SDS011;10607;42.066;24.742;2023-09-19T03:48:30;5.00;;;4.10;;
20894;SDS011;10607;42.066;24.742;2023-09-19T03:50:55;5.80;;;4.30;;
20894;SDS011;10607;42.066;24.742;2023-09-19T03:53:21;10.05;;;4.95;;
20894;SDS011;10607;42.066;24.742;2023-09-19T03:55:47;8.98;;;4.72;;
20894;SDS011;10607;42.066;24.742;2023-09-19T03:58:12;8.80;;;4.75;;
20894;SDS011;10607;42.066;24.742;2023-09-19T04:00:38;9.25;;;4.43;;
20894;SDS011;10607;42.066;24.742;2023-09-19T04:03:03;8.30;;;4.78;;
20894;SDS011;10607;42.066;24.742;2023-09-19T04:05:31;7.63;;;4.57;;
20894;SDS011;10607;42.066;24.742;2023-09-19T04:07:56;7.80;;;4.90;;
20894;SDS011;10607;42.066;24.742;2023-09-19T04:10:21;10.32;;;4.95;;
20894;SDS011;10607;42.066;24.742;2023-09-19T04:12:50;9.95;;;4.82;;
20894;SDS011;10607;42.066;24.742;2023-09-19T04:15:17;7.30;;;4.18;;
20894;SDS011;10607;42.066;24.742;2023-09-19T04:17:42;5.55;;;4.60;;
20894;SDS011;10607;42.066;24.742;2023-09-19T04:20:07;6.45;;;4.30;;
20894;SDS011;10607;42.066;24.742;2023-09-19T04:22:33;8.25;;;4.78;;
20894;SDS011;10607;42.066;24.742;2023-09-19T04:24:58;9.05;;;4.43;;
20894;SDS011;10607;42.066;24.742;2023-09-19T04:27:24;6.03;;;4.75;;
20894;SDS011;10607;42.066;24.742;2023-09-19T04:29:49;7.85;;;4.07;;
20894;SDS011;10607;42.066;24.742;2023-09-19T04:32:18;8.15;;;4.20;;
20894;SDS011;10607;42.066;24.742;2023-09-19T04:34:43;7.75;;;4.55;;
20894;SDS011;10607;42.066;24.742;2023-09-19T04:37:08;6.18;;;4.68;;
20894;SDS011;10607;42.066;24.742;2023-09-19T04:39:33;6.65;;;4.40;;
20894;SDS011;10607;42.066;24.742;2023-09-19T04:41:59;5.45;;;4.40;;
20894;SDS011;10607;42.066;24.742;2023-09-19T04:44:24;8.73;;;3.88;;
20894;SDS011;10607;42.066;24.742;2023-09-19T04:46:50;6.35;;;4.30;;
20894;SDS011;10607;42.066;24.742;2023-09-19T04:49:15;8.70;;;4.25;;
20894;SDS011;10607;42.066;24.742;2023-09-19T04:51:41;6.25;;;4.00;;
20894;SDS011;10607;42.066;24.742;2023-09-19T04:54:07;6.53;;;4.38;;
20894;SDS011;10607;42.066;24.742;2023-09-19T04:56:32;6.80;;;4.45;;
20894;SDS011;10607;42.066;24.742;2023-09-19T04:58:59;8.50;;;4.10;;
20894;SDS011;10607;42.066;24.742;2023-09-19T05:01:25;9.57;;;4.15;;
20894;SDS011;10607;42.066;24.742;2023-09-19T05:03:50;5.07;;;4.32;;
20894;SDS011;10607;42.066;24.742;2023-09-19T05:06:19;9.30;;;4.68;;
20894;SDS011;10607;42.066;24.742;2023-09-19T05:08:46;8.45;;;4.53;;
20894;SDS011;10607;42.066;24.742;2023-09-19T05:11:11;6.13;;;3.92;;
20894;SDS011;10607;42.066;24.742;2023-09-19T05:13:37;5.68;;;4.47;;
20894;SDS011;10607;42.066;24.742;2023-09-19T05:16:02;5.55;;;4.20;;
20894;SDS011;10607;42.066;24.742;2023-09-19T05:18:27;6.47;;;3.50;;
20894;SDS011;10607;42.066;24.742;2023-09-19T05:20:53;10.60;;;4.03;;
20894;SDS011;10607;42.066;24.742;2023-09-19T05:23:19;12.48;;;5.03;;
20894;SDS011;10607;42.066;24.742;2023-09-19T05:25:46;12.07;;;4.68;;
20894;SDS011;10607;42.066;24.742;2023-09-19T05:28:11;10.90;;;4.50;;
20894;SDS011;10607;42.066;24.742;2023-09-19T05:30:40;7.40;;;4.70;;
20894;SDS011;10607;42.066;24.742;2023-09-19T05:33:06;7.50;;;4.57;;
20894;SDS011;10607;42.066;24.742;2023-09-19T05:35:31;12.70;;;4.65;;
20894;SDS011;10607;42.066;24.742;2023-09-19T05:37:56;7.72;;;4.25;;
20894;SDS011;10607;42.066;24.742;2023-09-19T05:40:23;10.68;;;4.15;;
20894;SDS011;10607;42.066;24.742;2023-09-19T05:42:48;10.65;;;4.57;;
20894;SDS011;10607;42.066;24.742;2023-09-19T05:45:15;10.05;;;3.85;;
20894;SDS011;10607;42.066;24.742;2023-09-19T05:47:44;10.93;;;3.83;;
20894;SDS011;10607;42.066;24.742;2023-09-19T05:50:10;11.10;;;3.85;;
20894;SDS011;10607;42.066;24.742;2023-09-19T05:52:36;10.63;;;4.22;;
20894;SDS011;10607;42.066;24.742;2023-09-19T05:55:06;11.27;;;4.00;;
20894;SDS011;10607;42.066;24.742;2023-09-19T05:57:32;5.20;;;3.40;;
20894;SDS011;10607;42.066;24.742;2023-09-19T05:59:58;7.35;;;3.38;;
20894;SDS011;10607;42.066;24.742;2023-09-19T06:02:23;10.98;;;3.50;;
20894;SDS011;10607;42.066;24.742;2023-09-19T06:04:48;7.75;;;3.22;;
20894;SDS011;10607;42.066;24.742;2023-09-19T06:07:14;9.95;;;3.15;;
20894;SDS011;10607;42.066;24.742;2023-09-19T06:09:41;13.85;;;3.90;;
20894;SDS011;10607;42.066;24.742;2023-09-19T06:12:06;11.05;;;3.90;;
20894;SDS011;10607;42.066;24.742;2023-09-19T06:14:32;20.50;;;4.57;;
20894;SDS011;10607;42.066;24.742;2023-09-19T06:16:57;18.60;;;3.93;;
20894;SDS011;10607;42.066;24.742;2023-09-19T06:19:22;12.60;;;3.95;;
20894;SDS011;10607;42.066;24.742;2023-09-19T06:21:48;14.38;;;4.03;;
20894;SDS011;10607;42.066;24.742;2023-09-19T06:24:13;17.25;;;4.07;;
20894;SDS011;10607;42.066;24.742;2023-09-19T06:26:38;15.05;;;3.47;;
20894;SDS011;10607;42.066;24.742;2023-09-19T06:29:04;16.77;;;3.85;;
20894;SDS011;10607;42.066;24.742;2023-09-19T06:31:32;11.57;;;4.13;;
20894;SDS011;10607;42.066;24.742;2023-09-19T06:33:58;10.60;;;3.97;;
20894;SDS011;10607;42.066;24.742;2023-09-19T06:36:23;17.58;;;4.18;;
20894;SDS011;10607;42.066;24.742;2023-09-19T06:38:49;14.27;;;4.15;;
20894;SDS011;10607;42.066;24.742;2023-09-19T06:41:16;15.57;;;4.63;;
20894;SDS011;10607;42.066;24.742;2023-09-19T06:43:42;19.67;;;5.20;;
20894;SDS011;10607;42.066;24.742;2023-09-19T06:46:07;15.40;;;5.47;;
20894;SDS011;10607;42.066;24.742;2023-09-19T06:48:32;13.27;;;4.33;;
20894;SDS011;10607;42.066;24.742;2023-09-19T06:50:58;12.32;;;5.25;;
20894;SDS011;10607;42.066;24.742;2023-09-19T06:53:26;10.93;;;4.78;;
20894;SDS011;10607;42.066;24.742;2023-09-19T06:55:52;29.77;;;4.97;;
20894;SDS011;10607;42.066;24.742;2023-09-19T06:58:17;13.80;;;4.15;;
20894;SDS011;10607;42.066;24.742;2023-09-19T07:00:42;11.85;;;5.03;;
20894;SDS011;10607;42.066;24.742;2023-09-19T07:03:08;7.13;;;4.50;;
20894;SDS011;10607;42.066;24.742;2023-09-19T07:05:36;7.68;;;3.95;;
20894;SDS011;10607;42.066;24.742;2023-09-19T07:08:03;8.88;;;4.47;;
20894;SDS011;10607;42.066;24.742;2023-09-19T07:10:29;7.95;;;4.18;;
20894;SDS011;10607;42.066;24.742;2023-09-19T07:12:55;10.65;;;4.78;;
20894;SDS011;10607;42.066;24.742;2023-09-19T07:15:20;11.32;;;5.10;;
20894;SDS011;10607;42.066;24.742;2023-09-19T07:17:48;11.88;;;4.93;;
20894;SDS011;10607;42.066;24.742;2023-09-19T07:20:13;12.48;;;5.25;;
20894;SDS011;10607;42.066;24.742;2023-09-19T07:22:41;11.98;;;7.15;;
20894;SDS011;10607;42.066;24.742;2023-09-19T07:25:06;12.02;;;8.20;;
20894;SDS011;10607;42.066;24.742;2023-09-19T07:27:32;16.60;;;7.97;;
20894;SDS011;10607;42.066;24.742;2023-09-19T07:29:57;13.90;;;6.00;;
20894;SDS011;10607;42.066;24.742;2023-09-19T07:32:24;17.15;;;7.57;;
20894;SDS011;10607;42.066;24.742;2023-09-19T07:34:49;14.73;;;8.90;;
20894;SDS011;10607;42.066;24.742;2023-09-19T07:37:14;7.90;;;4.93;;
20894;SDS011;10607;42.066;24.742;2023-09-19T07:39:41;12.10;;;5.13;;
20894;SDS011;10607;42.066;24.742;2023-09-19T07:42:07;9.38;;;3.83;;
20894;SDS011;10607;42.066;24.742;2023-09-19T07:44:32;5.72;;;2.95;;
20894;SDS011;10607;42.066;24.742;2023-09-19T07:46:57;8.55;;;3.42;;
20894;SDS011;10607;42.066;24.742;2023-09-19T07:49:22;4.10;;;2.90;;
20894;SDS011;10607;42.066;24.742;2023-09-19T07:51:48;8.35;;;3.08;;
20894;SDS011;10607;42.066;24.742;2023-09-19T07:54:13;7.88;;;3.60;;
20894;SDS011;10607;42.066;24.742;2023-09-19T07:56:39;5.40;;;3.03;;
20894;SDS011;10607;42.066;24.742;2023-09-19T07:59:05;6.57;;;3.67;;
20894;SDS011;10607;42.066;24.742;2023-09-19T08:01:30;7.63;;;2.90;;
20894;SDS011;10607;42.066;24.742;2023-09-19T08:03:55;12.82;;;4.65;;
20894;SDS011;10607;42.066;24.742;2023-09-19T08:06:20;8.25;;;2.97;;
20894;SDS011;10607;42.066;24.742;2023-09-19T08:08:46;10.53;;;6.07;;
20894;SDS011;10607;42.066;24.742;2023-09-19T08:11:11;8.63;;;4.10;;
20894;SDS011;10607;42.066;24.742;2023-09-19T08:13:40;5.88;;;2.95;;
20894;SDS011;10607;42.066;24.742;2023-09-19T08:16:08;10.50;;;3.67;;
20894;SDS011;10607;42.066;24.742;2023-09-19T08:18:33;5.05;;;3.50;;
20894;SDS011;10607;42.066;24.742;2023-09-19T08:20:59;10.10;;;2.97;;
20894;SDS011;10607;42.066;24.742;2023-09-19T08:23:25;8.70;;;3.35;;
20894;SDS011;10607;42.066;24.742;2023-09-19T08:25:55;8.93;;;3.28;;
20894;SDS011;10607;42.066;24.742;2023-09-19T08:28:20;3.85;;;3.20;;
20894;SDS011;10607;42.066;24.742;2023-09-19T08:30:49;5.63;;;3.35;;
20894;SDS011;10607;42.066;24.742;2023-09-19T08:33:14;6.13;;;3.38;;
20894;SDS011;10607;42.066;24.742;2023-09-19T08:35:42;7.10;;;4.07;;
20894;SDS011;10607;42.066;24.742;2023-09-19T08:38:08;8.48;;;3.60;;
20894;SDS011;10607;42.066;24.742;2023-09-19T08:40:36;8.35;;;3.88;;
20894;SDS011;10607;42.066;24.742;2023-09-19T08:43:04;7.45;;;3.50;;
20894;SDS011;10607;42.066;24.742;2023-09-19T08:45:29;4.68;;;3.45;;
20894;SDS011;10607;42.066;24.742;2023-09-19T08:50:43;7.38;;;4.03;;
20894;SDS011;10607;42.066;24.742;2023-09-19T08:53:14;9.52;;;3.78;;
20894;SDS011;10607;42.066;24.742;2023-09-19T08:55:40;6.78;;;3.67;;
20894;SDS011;10607;42.066;24.742;2023-09-19T08:58:08;8.45;;;3.97;;
20894;SDS011;10607;42.066;24.742;2023-09-19T09:00:35;5.53;;;3.72;;
20894;SDS011;10607;42.066;24.742;2023-09-19T09:03:00;17.45;;;3.65;;
20894;SDS011;10607;42.066;24.742;2023-09-19T09:05:27;6.80;;;3.53;;
20894;SDS011;10607;42.066;24.742;2023-09-19T09:07:52;6.55;;;4.15;;
20894;SDS011;10607;42.066;24.742;2023-09-19T09:10:20;8.50;;;4.13;;
20894;SDS011;10607;42.066;24.742;2023-09-19T09:12:48;11.23;;;3.92;;
20894;SDS011;10607;42.066;24.742;2023-09-19T09:15:13;7.03;;;4.00;;
20894;SDS011;10607;42.066;24.742;2023-09-19T09:17:41;8.35;;;4.13;;
20894;SDS011;10607;42.066;24.742;2023-09-19T09:20:08;12.20;;;4.18;;
20894;SDS011;10607;42.066;24.742;2023-09-19T09:22:34;7.40;;;3.88;;
20894;SDS011;10607;42.066;24.742;2023-09-19T09:25:01;9.00;;;4.32;;
20894;SDS011;10607;42.066;24.742;2023-09-19T09:27:29;9.38;;;4.00;;
20894;SDS011;10607;42.066;24.742;2023-09-19T09:29:54;9.52;;;3.88;;
20894;SDS011;10607;42.066;24.742;2023-09-19T09:32:29;17.33;;;4.50;;
20894;SDS011;10607;42.066;24.742;2023-09-19T09:34:57;7.88;;;3.83;;
20894;SDS011;10607;42.066;24.742;2023-09-19T09:37:23;7.60;;;3.78;;
20894;SDS011;10607;42.066;24.742;2023-09-19T09:39:53;12.55;;;4.10;;
20894;SDS011;10607;42.066;24.742;2023-09-19T09:42:31;10.43;;;4.22;;
20894;SDS011;10607;42.066;24.742;2023-09-19T09:47:44;7.10;;;3.97;;
20894;SDS011;10607;42.066;24.742;2023-09-19T09:50:31;10.82;;;4.20;;
20894;SDS011;10607;42.066;24.742;2023-09-19T09:53:21;10.27;;;4.18;;
20894;SDS011;10607;42.066;24.742;2023-09-19T10:01:13;18.20;;;4.68;;
20894;SDS011;10607;42.066;24.742;2023-09-19T10:03:41;13.23;;;4.07;;
20894;SDS011;10607;42.066;24.742;2023-09-19T10:06:16;10.57;;;3.95;;
20894;SDS011;10607;42.066;24.742;2023-09-19T10:08:57;17.75;;;4.70;;
20894;SDS011;10607;42.066;24.742;2023-09-19T10:11:27;15.13;;;4.88;;
20894;SDS011;10607;42.066;24.742;2023-09-19T10:13:55;21.13;;;4.95;;
20894;SDS011;10607;42.066;24.742;2023-09-19T10:16:20;9.93;;;4.43;;
20894;SDS011;10607;42.066;24.742;2023-09-19T10:18:47;8.88;;;4.32;;
20894;SDS011;10607;42.066;24.742;2023-09-19T10:21:17;14.10;;;4.60;;
20894;SDS011;10607;42.066;24.742;2023-09-19T10:23:47;8.52;;;3.85;;
20894;SDS011;10607;42.066;24.742;2023-09-19T10:26:15;13.73;;;4.63;;
20894;SDS011;10607;42.066;24.742;2023-09-19T10:28:42;9.52;;;4.00;;
20894;SDS011;10607;42.066;24.742;2023-09-19T10:31:07;8.60;;;3.97;;
20894;SDS011;10607;42.066;24.742;2023-09-19T10:33:35;16.20;;;4.57;;
20894;SDS011;10607;42.066;24.742;2023-09-19T10:36:02;21.05;;;3.75;;
20894;SDS011;10607;42.066;24.742;2023-09-19T10:38:29;9.48;;;4.57;;
20894;SDS011;10607;42.066;24.742;2023-09-19T10:40:56;8.40;;;4.32;;
20894;SDS011;10607;42.066;24.742;2023-09-19T10:43:25;6.50;;;4.15;;
20894;SDS011;10607;42.066;24.742;2023-09-19T10:45:51;16.25;;;4.15;;
20894;SDS011;10607;42.066;24.742;2023-09-19T10:48:20;22.48;;;4.30;;
20894;SDS011;10607;42.066;24.742;2023-09-19T10:53:29;6.38;;;4.25;;
20894;SDS011;10607;42.066;24.742;2023-09-19T10:55:58;11.27;;;4.45;;
20894;SDS011;10607;42.066;24.742;2023-09-19T10:58:28;8.18;;;3.97;;
20894;SDS011;10607;42.066;24.742;2023-09-19T11:00:57;13.13;;;4.18;;
20894;SDS011;10607;42.066;24.742;2023-09-19T11:03:30;19.27;;;4.30;;
20894;SDS011;10607;42.066;24.742;2023-09-19T11:06:02;8.70;;;4.57;;
20894;SDS011;10607;42.066;24.742;2023-09-19T11:08:51;14.82;;;4.40;;
20894;SDS011;10607;42.066;24.742;2023-09-19T11:22:13;10.02;;;3.85;;
20894;SDS011;10607;42.066;24.742;2023-09-19T11:24:38;23.42;;;4.10;;
20894;SDS011;10607;42.066;24.742;2023-09-19T11:27:10;11.00;;;3.80;;
20894;SDS011;10607;42.066;24.742;2023-09-19T11:29:38;10.38;;;4.53;;
20894;SDS011;10607;42.066;24.742;2023-09-19T11:32:04;13.93;;;3.90;;
20894;SDS011;10607;42.066;24.742;2023-09-19T11:39:42;7.65;;;3.53;;
20894;SDS011;10607;42.066;24.742;2023-09-19T11:42:44;16.17;;;3.90;;
20894;SDS011;10607;42.066;24.742;2023-09-19T11:47:55;5.28;;;4.05;;
20894;SDS011;10607;42.066;24.742;2023-09-19T11:50:21;12.80;;;4.15;;
20894;SDS011;10607;42.066;24.742;2023-09-19T11:52:49;10.25;;;3.53;;
20894;SDS011;10607;42.066;24.742;2023-09-19T11:55:15;6.47;;;3.50;;
20894;SDS011;10607;42.066;24.742;2023-09-19T11:57:46;10.27;;;3.67;;
20894;SDS011;10607;42.066;24.742;2023-09-19T12:00:19;8.75;;;3.90;;
20894;SDS011;10607;42.066;24.742;2023-09-19T12:02:46;9.23;;;3.90;;
20894;SDS011;10607;42.066;24.742;2023-09-19T12:05:12;6.53;;;3.58;;
20894;SDS011;10607;42.066;24.742;2023-09-19T12:07:43;11.73;;;3.13;;
20894;SDS011;10607;42.066;24.742;2023-09-19T12:10:13;10.38;;;4.13;;
20894;SDS011;10607;42.066;24.742;2023-09-19T12:12:45;8.07;;;3.35;;
20894;SDS011;10607;42.066;24.742;2023-09-19T12:15:11;9.57;;;3.92;;
20894;SDS011;10607;42.066;24.742;2023-09-19T12:17:40;13.45;;;3.85;;
20894;SDS011;10607;42.066;24.742;2023-09-19T12:20:07;10.65;;;4.00;;
20894;SDS011;10607;42.066;24.742;2023-09-19T12:22:42;9.15;;;3.58;;
20894;SDS011;10607;42.066;24.742;2023-09-19T12:25:08;7.30;;;4.05;;
20894;SDS011;10607;42.066;24.742;2023-09-19T12:27:42;8.75;;;3.60;;
20894;SDS011;10607;42.066;24.742;2023-09-19T12:30:09;6.75;;;4.00;;
20894;SDS011;10607;42.066;24.742;2023-09-19T12:32:34;5.32;;;3.53;;
20894;SDS011;10607;42.066;24.742;2023-09-19T12:35:00;8.52;;;4.10;;
20894;SDS011;10607;42.066;24.742;2023-09-19T12:37:32;10.30;;;3.78;;
20894;SDS011;10607;42.066;24.742;2023-09-19T12:40:07;6.78;;;3.78;;
20894;SDS011;10607;42.066;24.742;2023-09-19T12:42:43;13.60;;;3.92;;
20894;SDS011;10607;42.066;24.742;2023-09-19T12:45:09;6.20;;;3.75;;
20894;SDS011;10607;42.066;24.742;2023-09-19T12:47:35;7.43;;;3.70;;
20894;SDS011;10607;42.066;24.742;2023-09-19T12:52:52;11.40;;;3.30;;
20894;SDS011;10607;42.066;24.742;2023-09-19T13:03:15;9.02;;;3.95;;
20894;SDS011;10607;42.066;24.742;2023-09-19T13:05:57;6.22;;;4.05;;
20894;SDS011;10607;42.066;24.742;2023-09-19T13:11:04;9.07;;;3.60;;
20894;SDS011;10607;42.066;24.742;2023-09-19T13:13:37;8.65;;;3.83;;
20894;SDS011;10607;42.066;24.742;2023-09-19T13:16:03;9.07;;;3.97;;
20894;SDS011;10607;42.066;24.742;2023-09-19T13:18:41;8.63;;;3.70;;
20894;SDS011;10607;42.066;24.742;2023-09-19T13:21:08;12.30;;;4.47;;
20894;SDS011;10607;42.066;24.742;2023-09-19T13:23:37;17.58;;;4.25;;
20894;SDS011;10607;42.066;24.742;2023-09-19T13:26:03;10.25;;;3.60;;
20894;SDS011;10607;42.066;24.742;2023-09-19T13:28:30;11.02;;;4.20;;
20894;SDS011;10607;42.066;24.742;2023-09-19T13:30:56;13.35;;;4.10;;
20894;SDS011;10607;42.066;24.742;2023-09-19T13:33:22;12.13;;;4.32;;
20894;SDS011;10607;42.066;24.742;2023-09-19T13:35:47;11.60;;;4.05;;
20894;SDS011;10607;42.066;24.742;2023-09-19T13:38:13;11.90;;;3.70;;
20894;SDS011;10607;42.066;24.742;2023-09-19T13:40:39;10.07;;;4.10;;
20894;SDS011;10607;42.066;24.742;2023-09-19T13:43:07;10.48;;;4.20;;
20894;SDS011;10607;42.066;24.742;2023-09-19T13:45:32;7.80;;;3.90;;
20894;SDS011;10607;42.066;24.742;2023-09-19T13:47:57;11.30;;;4.22;;
20894;SDS011;10607;42.066;24.742;2023-09-19T13:50:25;9.38;;;4.70;;
20894;SDS011;10607;42.066;24.742;2023-09-19T13:52:54;6.20;;;4.38;;
20894;SDS011;10607;42.066;24.742;2023-09-19T13:55:19;9.15;;;4.15;;
20894;SDS011;10607;42.066;24.742;2023-09-19T13:57:47;5.97;;;3.90;;
20894;SDS011;10607;42.066;24.742;2023-09-19T14:00:17;7.50;;;4.35;;
20894;SDS011;10607;42.066;24.742;2023-09-19T14:02:42;14.90;;;4.63;;
20894;SDS011;10607;42.066;24.742;2023-09-19T14:05:10;13.10;;;4.47;;
20894;SDS011;10607;42.066;24.742;2023-09-19T14:07:37;11.57;;;4.43;;
20894;SDS011;10607;42.066;24.742;2023-09-19T14:10:03;7.90;;;3.90;;
20894;SDS011;10607;42.066;24.742;2023-09-19T14:12:29;8.63;;;4.07;;
20894;SDS011;10607;42.066;24.742;2023-09-19T14:14:54;9.43;;;4.32;;
20894;SDS011;10607;42.066;24.742;2023-09-19T14:17:21;16.27;;;4.88;;
20894;SDS011;10607;42.066;24.742;2023-09-19T14:19:46;11.40;;;4.53;;
20894;SDS011;10607;42.066;24.742;2023-09-19T14:22:12;12.50;;;4.60;;
20894;SDS011;10607;42.066;24.742;2023-09-19T14:24:39;9.52;;;4.05;;
20894;SDS011;10607;42.066;24.742;2023-09-19T14:27:06;9.30;;;4.30;;
20894;SDS011;10607;42.066;24.742;2023-09-19T14:29:34;23.30;;;5.10;;
20894;SDS011;10607;42.066;24.742;2023-09-19T14:31:59;15.23;;;4.50;;
20894;SDS011;10607;42.066;24.742;2023-09-19T14:34:24;10.50;;;4.30;;
20894;SDS011;10607;42.066;24.742;2023-09-19T14:36:49;10.23;;;4.55;;
20894;SDS011;10607;42.066;24.742;2023-09-19T14:39:14;12.43;;;4.05;;
20894;SDS011;10607;42.066;24.742;2023-09-19T14:41:40;10.52;;;4.03;;
20894;SDS011;10607;42.066;24.742;2023-09-19T14:44:05;12.95;;;4.32;;
20894;SDS011;10607;42.066;24.742;2023-09-19T14:46:30;11.00;;;4.20;;
20894;SDS011;10607;42.066;24.742;2023-09-19T14:48:56;10.80;;;4.43;;
20894;SDS011;10607;42.066;24.742;2023-09-19T14:51:24;11.15;;;4.18;;
20894;SDS011;10607;42.066;24.742;2023-09-19T14:53:49;16.17;;;3.95;;
20894;SDS011;10607;42.066;24.742;2023-09-19T14:56:15;14.75;;;4.57;;
20894;SDS011;10607;42.066;24.742;2023-09-19T14:58:45;11.82;;;4.40;;
20894;SDS011;10607;42.066;24.742;2023-09-19T15:01:11;23.02;;;4.70;;
20894;SDS011;10607;42.066;24.742;2023-09-19T15:03:37;13.63;;;4.35;;
20894;SDS011;10607;42.066;24.742;2023-09-19T15:06:06;13.13;;;4.55;;
20894;SDS011;10607;42.066;24.742;2023-09-19T15:08:35;10.88;;;5.18;;
20894;SDS011;10607;42.066;24.742;2023-09-19T15:11:03;17.40;;;4.75;;
20894;SDS011;10607;42.066;24.742;2023-09-19T15:13:30;9.85;;;4.05;;
20894;SDS011;10607;42.066;24.742;2023-09-19T15:15:59;10.07;;;4.07;;
20894;SDS011;10607;42.066;24.742;2023-09-19T15:18:25;14.77;;;4.60;;
20894;SDS011;10607;42.066;24.742;2023-09-19T15:20:50;15.48;;;4.43;;
20894;SDS011;10607;42.066;24.742;2023-09-19T15:23:15;15.20;;;5.05;;
20894;SDS011;10607;42.066;24.742;2023-09-19T15:25:47;10.80;;;5.18;;
20894;SDS011;10607;42.066;24.742;2023-09-19T15:28:12;22.38;;;4.70;;